createdAt,value
2019-05-01T00:01:44.737Z,86.42
2019-05-01T00:04:23.210Z,86.00
2019-05-01T00:06:56.540Z,85.82
2019-05-01T00:09:27.470Z,85.35
2019-05-01T00:12:01.236Z,85.14
2019-05-01T00:14:33.291Z,86.71
2019-05-01T00:17:16.305Z,87.35
2019-05-01T00:19:46.260Z,87.05
2019-05-01T00:22:20.560Z,87.09
2019-05-01T00:24:51.389Z,87.63
2019-05-01T00:27:22.991Z,88.12
2019-05-01T00:29:55.108Z,88.78
2019-05-01T00:32:29.867Z,88.65
2019-05-01T00:34:59.543Z,88.46
2019-05-01T00:37:28.704Z,88.69
2019-05-01T00:39:57.410Z,88.69
2019-05-01T00:42:26.033Z,88.79
2019-05-01T00:44:54.659Z,88.68
2019-05-01T00:47:23.298Z,88.64
2019-05-01T00:49:52.050Z,88.80
2019-05-01T00:52:20.751Z,89.27
2019-05-01T00:54:51.169Z,89.83
2019-05-01T00:57:29.193Z,90.47
2019-05-01T01:00:07.092Z,89.94
2019-05-01T01:02:41.708Z,92.30
2019-05-01T01:05:10.385Z,92.39
2019-05-01T01:07:39.026Z,91.76
2019-05-01T01:10:08.656Z,91.15
2019-05-01T01:12:37.277Z,91.01
2019-05-01T01:15:06.660Z,93.02
2019-05-01T01:17:35.276Z,92.69
2019-05-01T01:20:04.094Z,92.18
2019-05-01T01:22:32.751Z,91.98
2019-05-01T01:25:01.995Z,91.56
2019-05-01T01:27:30.809Z,91.69
2019-05-01T01:29:59.478Z,92.10
2019-05-01T01:32:28.092Z,92.80
2019-05-01T01:34:56.818Z,92.82
2019-05-01T01:37:25.667Z,93.23
2019-05-01T01:39:54.330Z,93.97
2019-05-01T01:42:23.391Z,94.55
2019-05-01T01:45:13.814Z,93.59
2019-05-01T01:48:00.140Z,93.07
2019-05-01T01:50:29.040Z,93.12
2019-05-01T01:52:57.777Z,93.59
2019-05-01T01:55:26.504Z,93.17
2019-05-01T01:57:55.713Z,93.34
2019-05-01T02:00:28.069Z,93.95
2019-05-01T02:02:59.544Z,94.06
2019-05-01T02:05:31.957Z,94.02
2019-05-01T02:08:00.656Z,95.12
2019-05-01T02:10:42.296Z,95.30
2019-05-01T02:12:59.964Z,95.44
2019-05-01T02:15:28.668Z,95.47
2019-05-01T02:17:57.294Z,96.56
2019-05-01T02:20:26.011Z,96.99
2019-05-01T02:22:54.654Z,98.16
2019-05-01T02:25:23.596Z,98.67
2019-05-01T02:28:12.219Z,98.71
2019-05-01T02:30:44.370Z,98.48
2019-05-01T02:33:13.057Z,98.75
2019-05-01T02:35:43.259Z,98.21
2019-05-01T02:38:13.565Z,99.16
2019-05-01T02:40:54.227Z,99.35
2019-05-01T02:43:24.436Z,99.34
2019-05-01T02:45:56.595Z,98.59
2019-05-01T02:48:26.494Z,98.33
2019-05-01T02:50:58.379Z,97.97
2019-05-01T02:53:28.056Z,98.36
2019-05-01T02:56:18.957Z,98.17
2019-05-01T02:58:49.178Z,97.61
2019-05-01T03:01:17.873Z,97.42
2019-05-01T03:03:47.164Z,97.26
2019-05-01T03:06:16.291Z,96.68
2019-05-01T03:08:45.205Z,96.11
2019-05-01T03:11:13.931Z,95.87
2019-05-01T03:13:43.896Z,96.74
2019-05-01T03:16:12.758Z,97.50
2019-05-01T03:18:46.361Z,97.51
2019-05-01T03:21:28.701Z,97.49
2019-05-01T03:24:09.904Z,98.06
2019-05-01T03:26:38.606Z,98.30
2019-05-01T03:29:08.210Z,98.94
2019-05-01T03:31:36.951Z,99.53
2019-05-01T03:34:05.675Z,100.00
2019-05-01T03:36:34.381Z,100.00
2019-05-01T03:39:05.145Z,100.00
2019-05-01T03:41:33.850Z,100.00
2019-05-01T03:44:02.874Z,100.00
2019-05-01T03:46:31.881Z,100.00
2019-05-01T03:49:00.591Z,99.73
2019-05-01T03:51:29.503Z,99.19
2019-05-01T03:53:58.544Z,97.74
2019-05-01T03:56:28.195Z,96.78
2019-05-01T03:58:57.085Z,96.42
2019-05-01T04:01:32.698Z,97.60
2019-05-01T04:04:04.837Z,98.12
2019-05-01T04:06:33.691Z,99.24
2019-05-01T04:09:02.393Z,99.66
2019-05-01T04:11:31.012Z,99.58
2019-05-01T04:13:59.714Z,99.12
2019-05-01T04:16:29.019Z,99.66
2019-05-01T04:18:57.831Z,100.00
2019-05-01T04:21:30.265Z,100.00
2019-05-01T04:23:58.978Z,100.00
2019-05-01T04:26:28.081Z,100.00
2019-05-01T04:29:30.867Z,100.00
2019-05-01T04:32:03.297Z,100.00
2019-05-01T04:34:44.427Z,100.00
2019-05-01T04:37:14.182Z,100.00
2019-05-01T04:39:42.873Z,100.00
2019-05-01T04:42:11.574Z,100.00
2019-05-01T04:44:40.269Z,100.00
2019-05-01T04:47:08.964Z,100.00
2019-05-01T04:49:37.666Z,100.00
2019-05-01T04:52:06.555Z,100.00
2019-05-01T04:54:35.221Z,100.00
2019-05-01T04:57:03.976Z,100.00
2019-05-01T04:59:32.724Z,100.00
2019-05-01T05:02:03.438Z,100.00
2019-05-01T05:04:32.450Z,100.00
2019-05-01T05:07:02.060Z,100.00
2019-05-01T05:09:47.352Z,100.00
2019-05-01T05:12:22.877Z,100.00
2019-05-01T05:14:55.981Z,100.00
2019-05-01T05:17:24.703Z,100.00
2019-05-01T05:19:53.633Z,100.00
2019-05-01T05:22:22.313Z,100.00
2019-05-01T05:24:51.228Z,100.00
2019-05-01T05:27:20.249Z,100.00
2019-05-01T05:29:49.603Z,100.00
2019-05-01T05:32:19.768Z,100.00
2019-05-01T05:34:48.793Z,100.00
2019-05-01T05:37:23.694Z,100.00
2019-05-01T05:39:53.145Z,99.89
2019-05-01T05:42:22.286Z,99.13
2019-05-01T05:44:51.155Z,98.41
2019-05-01T05:47:19.879Z,97.82
2019-05-01T05:49:48.686Z,97.41
2019-05-01T05:52:23.005Z,96.76
2019-05-01T05:55:02.230Z,96.40
2019-05-01T05:57:57.732Z,96.13
2019-05-01T06:00:45.401Z,95.88
2019-05-01T06:03:38.032Z,94.93
2019-05-01T06:06:19.306Z,93.97
2019-05-01T06:08:52.040Z,93.50
2019-05-01T06:11:38.937Z,92.99
2019-05-01T06:14:34.699Z,92.36
2019-05-01T06:17:12.114Z,91.50
2019-05-01T06:20:05.153Z,90.49
2019-05-01T06:23:15.723Z,89.14
2019-05-01T06:25:46.047Z,88.27
2019-05-01T06:28:19.892Z,88.92
2019-05-01T06:30:54.389Z,88.70
2019-05-01T06:33:23.344Z,87.67
2019-05-01T06:36:14.591Z,88.03
2019-05-01T06:38:45.494Z,87.58
2019-05-01T06:41:17.372Z,85.76
2019-05-01T06:44:02.179Z,84.77
2019-05-01T06:47:03.154Z,83.37
2019-05-01T06:50:01.194Z,82.96
2019-05-01T06:52:32.280Z,81.94
2019-05-01T06:55:01.485Z,81.98
2019-05-01T06:57:38.483Z,82.16
2019-05-01T07:00:12.016Z,81.81
2019-05-01T07:02:42.956Z,81.36
2019-05-01T07:05:14.695Z,80.84
2019-05-01T07:07:47.978Z,80.87
2019-05-01T07:10:30.714Z,79.79
2019-05-01T07:12:52.648Z,79.01
2019-05-01T07:15:26.860Z,78.50
2019-05-01T07:17:55.971Z,76.40
2019-05-01T07:20:51.389Z,75.98
2019-05-01T07:23:28.017Z,76.23
2019-05-01T07:25:56.914Z,75.30
2019-05-01T07:28:53.364Z,76.16
2019-05-01T07:31:25.915Z,76.39
2019-05-01T07:33:57.334Z,73.92
2019-05-01T07:36:27.942Z,72.83
2019-05-01T07:38:58.024Z,72.02
2019-05-01T07:41:39.370Z,72.15
2019-05-01T07:44:18.028Z,73.12
2019-05-01T07:47:09.554Z,72.95
2019-05-01T07:49:53.151Z,71.95
2019-05-01T07:52:22.928Z,71.57
2019-05-01T07:54:52.489Z,70.63
2019-05-01T07:57:23.033Z,70.52
2019-05-01T07:59:51.616Z,70.12
2019-05-01T08:02:20.328Z,70.58
2019-05-01T08:04:49.084Z,69.96
2019-05-01T08:07:17.847Z,69.01
2019-05-01T08:09:50.349Z,69.27
2019-05-01T08:12:18.865Z,68.32
2019-05-01T08:14:47.771Z,66.11
2019-05-01T08:17:19.886Z,66.45
2019-05-01T08:19:53.891Z,65.80
2019-05-01T08:22:25.271Z,65.40
2019-05-01T08:24:58.560Z,64.31
2019-05-01T08:27:51.077Z,64.92
2019-05-01T08:30:53.063Z,64.96
2019-05-01T08:33:49.872Z,63.47
2019-05-01T08:36:17.822Z,63.49
2019-05-01T08:38:46.468Z,63.94
2019-05-01T08:41:15.092Z,63.63
2019-05-01T08:43:43.908Z,63.00
2019-05-01T08:46:30.086Z,62.24
2019-05-01T08:49:32.382Z,62.24
2019-05-01T08:52:04.713Z,62.37
2019-05-01T08:54:33.649Z,62.02
2019-05-01T08:57:01.889Z,62.14
2019-05-01T08:59:30.517Z,61.88
2019-05-01T09:02:08.930Z,62.18
2019-05-01T09:04:32.406Z,62.63
2019-05-01T09:07:01.074Z,61.80
2019-05-01T09:09:29.841Z,61.93
2019-05-01T09:11:58.441Z,61.31
2019-05-01T09:14:29.794Z,63.21
2019-05-01T09:16:57.391Z,63.61
2019-05-01T09:19:26.038Z,62.83
2019-05-01T09:21:54.647Z,61.37
2019-05-01T09:24:27.875Z,61.30
2019-05-01T09:27:18.519Z,59.99
2019-05-01T09:29:51.661Z,62.14
2019-05-01T09:32:18.926Z,62.05
2019-05-01T09:34:47.647Z,61.79
2019-05-01T09:37:16.467Z,58.21
2019-05-01T09:39:47.394Z,58.21
2019-05-01T09:42:22.726Z,58.41
2019-05-01T09:44:46.226Z,58.41
2019-05-01T09:47:14.983Z,57.30
2019-05-01T09:49:43.746Z,57.42
2019-05-01T09:52:30.072Z,57.42
2019-05-01T09:55:12.266Z,55.82
2019-05-01T09:57:42.734Z,54.67
2019-05-01T10:00:20.232Z,55.34
2019-05-01T10:02:48.840Z,55.07
2019-05-01T10:05:28.414Z,54.36
2019-05-01T10:07:48.047Z,53.46
2019-05-01T10:10:17.245Z,53.36
2019-05-01T10:12:46.889Z,53.80
2019-05-01T10:15:16.504Z,53.40
2019-05-01T10:17:45.129Z,55.31
2019-05-01T10:20:13.815Z,55.31
2019-05-01T10:22:42.458Z,51.17
2019-05-01T10:25:12.441Z,48.97
2019-05-01T10:27:45.153Z,49.90
2019-05-01T10:30:20.308Z,50.53
2019-05-01T10:32:57.886Z,50.53
2019-05-01T10:35:42.635Z,51.68
2019-05-01T10:38:09.315Z,50.07
2019-05-01T10:40:35.947Z,49.37
2019-05-01T10:43:05.166Z,48.89
2019-05-01T10:45:33.797Z,49.66
2019-05-01T10:48:02.411Z,49.66
2019-05-01T10:50:31.078Z,49.01
2019-05-01T10:52:59.784Z,48.64
2019-05-01T10:55:28.710Z,48.64
2019-05-01T10:57:57.392Z,46.42
2019-05-01T11:00:26.175Z,46.42
2019-05-01T11:02:54.813Z,45.02
2019-05-01T11:05:23.423Z,45.02
2019-05-01T11:07:52.039Z,44.73
2019-05-01T11:10:20.743Z,44.73
2019-05-01T11:12:49.422Z,48.16
2019-05-01T11:15:18.212Z,48.16
2019-05-01T11:17:46.846Z,48.19
2019-05-01T11:20:15.729Z,48.19
2019-05-01T11:22:44.442Z,45.59
2019-05-01T11:25:15.458Z,45.35
2019-05-01T11:27:44.234Z,45.17
2019-05-01T11:30:13.187Z,44.94
2019-05-01T11:33:03.260Z,44.94
2019-05-01T11:35:51.006Z,46.36
2019-05-01T11:38:42.602Z,45.25
2019-05-01T11:41:21.471Z,45.25
2019-05-01T11:43:50.156Z,44.24
2019-05-01T11:46:18.786Z,44.12
2019-05-01T11:48:47.529Z,45.97
2019-05-01T11:51:16.228Z,45.97
2019-05-01T11:53:44.929Z,42.90
2019-05-01T11:56:13.595Z,42.98
2019-05-01T11:58:42.213Z,42.98
2019-05-01T12:01:12.579Z,44.21
2019-05-01T12:03:41.307Z,44.83
2019-05-01T12:06:22.340Z,44.09
2019-05-01T12:08:40.352Z,43.94
2019-05-01T12:11:10.537Z,43.94
2019-05-01T12:13:43.895Z,43.72
2019-05-01T12:16:31.262Z,45.38
2019-05-01T12:18:59.871Z,46.52
2019-05-01T12:21:28.522Z,46.58
2019-05-01T12:23:57.187Z,46.58
2019-05-01T12:26:25.814Z,41.63
2019-05-01T12:28:54.465Z,41.63
2019-05-01T12:31:23.088Z,42.27
2019-05-01T12:33:51.733Z,41.78
2019-05-01T12:36:20.416Z,42.54
2019-05-01T12:38:49.045Z,41.74
2019-05-01T12:41:26.004Z,42.25
2019-05-01T12:43:54.648Z,40.71
2019-05-01T12:46:41.798Z,43.24
2019-05-01T12:49:10.449Z,41.55
2019-05-01T12:51:40.328Z,41.55
2019-05-01T12:54:14.735Z,42.92
2019-05-01T12:56:48.719Z,39.04
2019-05-01T12:59:17.444Z,42.25
2019-05-01T13:01:46.153Z,42.57
2019-05-01T13:04:14.859Z,41.92
2019-05-01T13:06:49.461Z,40.25
2019-05-01T13:09:13.814Z,39.66
2019-05-01T13:11:42.502Z,40.48
2019-05-01T13:14:11.134Z,38.43
2019-05-01T13:16:40.542Z,40.12
2019-05-01T13:19:09.201Z,39.10
2019-05-01T13:21:37.883Z,37.07
2019-05-01T13:24:06.585Z,36.47
2019-05-01T13:26:40.668Z,37.93
2019-05-01T13:29:15.583Z,37.93
2019-05-01T13:32:02.110Z,39.20
2019-05-01T13:34:30.863Z,37.66
2019-05-01T13:37:03.175Z,38.17
2019-05-01T13:39:29.975Z,39.65
2019-05-01T13:41:58.657Z,37.61
2019-05-01T13:44:27.311Z,38.81
2019-05-01T13:46:55.924Z,38.47
2019-05-01T13:49:24.637Z,37.41
2019-05-01T13:51:53.359Z,35.86
2019-05-01T13:54:21.989Z,36.24
2019-05-01T13:56:50.666Z,37.72
2019-05-01T13:59:19.358Z,37.53
2019-05-01T14:01:48.019Z,35.00
2019-05-01T14:04:16.655Z,35.45
2019-05-01T14:06:45.374Z,35.45
2019-05-01T14:09:22.597Z,34.30
2019-05-01T14:11:51.236Z,34.38
2019-05-01T14:14:19.833Z,34.42
2019-05-01T14:16:48.491Z,35.79
2019-05-01T14:19:17.105Z,35.90
2019-05-01T14:22:02.990Z,33.76
2019-05-01T14:24:42.055Z,32.87
2019-05-01T14:27:12.255Z,33.16
2019-05-01T14:29:41.336Z,33.87
2019-05-01T14:32:11.911Z,35.49
2019-05-01T14:34:41.958Z,34.98
2019-05-01T14:37:15.042Z,35.43
2019-05-01T14:39:44.404Z,36.03
2019-05-01T14:42:16.069Z,33.11
2019-05-01T14:44:50.759Z,32.44
2019-05-01T14:47:21.213Z,32.93
2019-05-01T14:49:52.285Z,34.46
2019-05-01T14:52:24.204Z,36.43
2019-05-01T14:55:03.870Z,34.33
2019-05-01T14:57:43.719Z,32.73
2019-05-01T15:00:15.294Z,32.63
2019-05-01T15:02:44.841Z,34.02
2019-05-01T15:05:14.954Z,36.31
2019-05-01T15:07:49.804Z,36.04
2019-05-01T15:10:20.819Z,36.04
2019-05-01T15:12:55.564Z,34.54
2019-05-01T15:15:32.571Z,34.04
2019-05-01T15:18:26.129Z,33.60
2019-05-01T15:21:00.925Z,33.87
2019-05-01T15:23:30.926Z,34.72
2019-05-01T15:26:03.753Z,34.99
2019-05-01T15:29:01.946Z,35.84
2019-05-01T15:31:36.118Z,33.66
2019-05-01T15:34:07.250Z,32.57
2019-05-01T15:36:37.524Z,34.59
2019-05-01T15:39:13.985Z,34.01
2019-05-01T15:42:12.459Z,35.22
2019-05-01T15:44:47.777Z,35.20
2019-05-01T15:47:18.387Z,35.75
2019-05-01T15:49:48.527Z,35.76
2019-05-01T15:52:17.127Z,35.50
2019-05-01T15:54:45.732Z,36.95
2019-05-01T15:57:14.416Z,35.86
2019-05-01T15:59:43.150Z,35.17
2019-05-01T16:02:11.843Z,36.58
2019-05-01T16:04:40.462Z,35.68
2019-05-01T16:07:09.069Z,35.11
2019-05-01T16:09:37.748Z,35.30
2019-05-01T16:12:29.504Z,37.06
2019-05-01T16:14:58.111Z,34.45
2019-05-01T16:17:26.744Z,34.57
2019-05-01T16:19:55.357Z,35.00
2019-05-01T16:22:23.952Z,36.11
2019-05-01T16:24:52.579Z,34.81
2019-05-01T16:27:21.211Z,34.44
2019-05-01T16:29:49.890Z,34.36
2019-05-01T16:32:18.565Z,33.93
2019-05-01T16:34:47.254Z,33.26
2019-05-01T16:37:15.943Z,34.68
2019-05-01T16:40:02.240Z,36.51
2019-05-01T16:42:35.421Z,36.10
2019-05-01T16:45:05.887Z,36.88
2019-05-01T16:47:34.490Z,37.25
2019-05-01T16:50:03.314Z,37.97
2019-05-01T16:52:34.141Z,35.85
2019-05-01T16:55:02.880Z,37.79
2019-05-01T16:57:31.509Z,34.79
2019-05-01T17:00:00.120Z,34.93
2019-05-01T17:02:40.681Z,35.87
2019-05-01T17:05:20.363Z,36.52
2019-05-01T17:08:09.198Z,35.74
2019-05-01T17:10:39.449Z,34.79
2019-05-01T17:13:08.525Z,35.42
2019-05-01T17:15:41.351Z,36.68
2019-05-01T17:18:10.188Z,37.17
2019-05-01T17:20:38.896Z,36.67
2019-05-01T17:23:07.615Z,36.36
2019-05-01T17:25:36.419Z,35.40
2019-05-01T17:28:08.213Z,35.12
2019-05-01T17:30:40.632Z,37.56
2019-05-01T17:33:09.443Z,37.78
2019-05-01T17:35:41.682Z,39.17
2019-05-01T17:38:08.600Z,39.60
2019-05-01T17:40:37.430Z,39.46
2019-05-01T17:43:07.999Z,40.12
2019-05-01T17:45:36.807Z,39.69
2019-05-01T17:48:05.760Z,40.13
2019-05-01T17:50:34.452Z,40.35
2019-05-01T17:53:03.199Z,41.06
2019-05-01T17:55:34.283Z,41.20
2019-05-01T17:58:03.722Z,41.37
2019-05-01T18:00:51.718Z,41.26
2019-05-01T18:03:40.012Z,42.31
2019-05-01T18:06:16.142Z,42.56
2019-05-01T18:08:47.158Z,42.96
2019-05-01T18:11:21.202Z,43.35
2019-05-01T18:13:50.848Z,43.77
2019-05-01T18:16:20.993Z,44.21
2019-05-01T18:18:51.048Z,44.27
2019-05-01T18:21:20.177Z,45.60
2019-05-01T18:24:08.965Z,46.92
2019-05-01T18:27:04.732Z,47.58
2019-05-01T18:29:44.559Z,48.23
2019-05-01T18:32:20.874Z,48.23
2019-05-01T18:34:58.059Z,48.77
2019-05-01T18:37:36.429Z,48.29
2019-05-01T18:40:13.183Z,48.54
2019-05-01T18:42:46.524Z,48.54
2019-05-01T18:45:39.381Z,48.78
2019-05-01T18:48:08.604Z,48.78
2019-05-01T18:50:39.578Z,49.34
2019-05-01T18:53:13.881Z,51.24
2019-05-01T18:55:46.232Z,51.24
2019-05-01T18:58:15.332Z,52.11
2019-05-01T19:00:51.090Z,53.34
2019-05-01T19:03:22.693Z,53.74
2019-05-01T19:05:56.435Z,54.91
2019-05-01T19:08:30.492Z,56.35
2019-05-01T19:11:13.559Z,58.08
2019-05-01T19:13:46.499Z,56.98
2019-05-01T19:16:18.175Z,56.98
2019-05-01T19:18:58.058Z,59.77
2019-05-01T19:21:29.096Z,58.53
2019-05-01T19:24:00.661Z,58.88
2019-05-01T19:26:32.480Z,58.79
2019-05-01T19:29:01.361Z,58.74
2019-05-01T19:31:33.716Z,58.98
2019-05-01T19:34:05.544Z,60.40
2019-05-01T19:36:40.489Z,60.37
2019-05-01T19:39:11.784Z,60.20
2019-05-01T19:41:43.635Z,61.78
2019-05-01T19:44:26.105Z,62.46
2019-05-01T19:46:59.769Z,62.68
2019-05-01T19:49:32.149Z,62.65
2019-05-01T19:52:02.237Z,62.85
2019-05-01T19:54:33.251Z,64.05
2019-05-01T19:57:01.998Z,64.02
2019-05-01T19:59:32.878Z,64.02
2019-05-01T20:02:06.382Z,64.19
2019-05-01T20:04:39.705Z,65.22
2019-05-01T20:07:17.352Z,67.02
2019-05-01T20:09:56.666Z,68.42
2019-05-01T20:12:29.869Z,68.11
2019-05-01T20:15:19.886Z,67.62
2019-05-01T20:17:53.168Z,67.70
2019-05-01T20:20:23.108Z,68.53
2019-05-01T20:23:02.089Z,69.34
2019-05-01T20:25:33.779Z,68.82
2019-05-01T20:28:03.693Z,68.52
2019-05-01T20:30:33.545Z,68.97
2019-05-01T20:33:23.964Z,71.56
2019-05-01T20:36:00.456Z,70.75
2019-05-01T20:38:27.096Z,70.41
2019-05-01T20:40:57.702Z,69.92
2019-05-01T20:43:33.502Z,70.68
2019-05-01T20:46:10.376Z,71.66
2019-05-01T20:48:39.655Z,73.69
2019-05-01T20:51:11.469Z,73.26
2019-05-01T20:53:40.698Z,72.57
2019-05-01T20:56:17.186Z,72.52
2019-05-01T20:58:46.931Z,72.57
2019-05-01T21:01:16.751Z,72.53
2019-05-01T21:03:58.153Z,73.05
2019-05-01T21:06:30.980Z,73.64
2019-05-01T21:09:15.887Z,73.68
2019-05-01T21:11:48.767Z,74.04
2019-05-01T21:14:23.179Z,74.15
2019-05-01T21:16:54.536Z,75.32
2019-05-01T21:19:28.571Z,74.77
2019-05-01T21:21:57.830Z,74.47
2019-05-01T21:24:26.623Z,76.52
2019-05-01T21:27:03.559Z,76.63
2019-05-01T21:29:34.330Z,75.91
2019-05-01T21:32:07.974Z,76.52
2019-05-01T21:34:37.684Z,76.17
2019-05-01T21:37:06.713Z,76.28
2019-05-01T21:39:57.768Z,77.71
2019-05-01T21:42:32.642Z,78.49
2019-05-01T21:45:04.370Z,77.28
2019-05-01T21:47:38.711Z,78.11
2019-05-01T21:50:09.252Z,77.74
2019-05-01T21:52:40.098Z,78.49
2019-05-01T21:55:12.886Z,78.59
2019-05-01T21:57:49.977Z,78.51
2019-05-01T22:00:19.980Z,79.11
2019-05-01T22:02:50.073Z,79.27
2019-05-01T22:05:22.073Z,79.20
2019-05-01T22:07:53.082Z,78.51
2019-05-01T22:10:26.722Z,78.47
2019-05-01T22:12:54.778Z,77.82
2019-05-01T22:15:32.927Z,77.72
2019-05-01T22:18:14.734Z,78.27
2019-05-01T22:20:49.014Z,78.23
2019-05-01T22:23:23.253Z,77.91
2019-05-01T22:25:57.254Z,77.73
2019-05-01T22:28:33.328Z,78.66
2019-05-01T22:31:40.177Z,81.90
2019-05-01T22:34:25.187Z,82.08
2019-05-01T22:36:54.677Z,80.99
2019-05-01T22:39:28.884Z,82.09
2019-05-01T22:41:58.284Z,83.24
2019-05-01T22:44:30.236Z,82.97
2019-05-01T22:47:00.423Z,82.46
2019-05-01T22:49:29.105Z,81.01
2019-05-01T22:51:57.791Z,81.41
2019-05-01T22:54:26.417Z,81.02
2019-05-01T22:56:55.128Z,83.17
2019-05-01T22:59:23.742Z,81.92
2019-05-01T23:01:54.453Z,85.17
2019-05-01T23:04:23.055Z,85.25
2019-05-01T23:06:51.690Z,84.39
2019-05-01T23:09:23.422Z,85.95
2019-05-01T23:11:51.909Z,87.11
2019-05-01T23:14:22.245Z,86.27
2019-05-01T23:17:03.213Z,84.56
2019-05-01T23:19:29.676Z,84.24
2019-05-01T23:21:58.483Z,83.29
2019-05-01T23:24:27.107Z,83.59
2019-05-01T23:26:55.785Z,84.79
2019-05-01T23:29:24.465Z,84.25
2019-05-01T23:31:53.168Z,83.73
2019-05-01T23:34:26.317Z,83.53
2019-05-01T23:36:52.176Z,83.76
2019-05-01T23:39:20.837Z,83.96
2019-05-01T23:41:49.486Z,83.81
2019-05-01T23:44:18.131Z,82.96
2019-05-01T23:46:46.752Z,82.45
2019-05-01T23:49:15.390Z,82.34
2019-05-01T23:51:43.995Z,82.18
2019-05-01T23:54:12.629Z,83.41
2019-05-01T23:56:41.246Z,84.20
2019-05-01T23:59:09.968Z,84.93
